createdAt,value
2023-02-16T00:01:25.993Z,42.20
2023-02-16T00:03:55.356Z,39.40
2023-02-16T00:06:25.359Z,40.00
2023-02-16T00:08:54.823Z,40.47
2023-02-16T00:11:45.827Z,40.50
2023-02-16T00:14:15.219Z,38.70
2023-02-16T00:16:43.112Z,37.13
2023-02-16T00:19:22.878Z,36.00
2023-02-16T00:21:54.977Z,36.10
2023-02-16T00:24:23.766Z,36.43
2023-02-16T00:26:51.777Z,35.20
2023-02-16T00:29:26.832Z,35.30
2023-02-16T00:31:56.514Z,36.10
2023-02-16T00:34:31.235Z,36.13
2023-02-16T00:37:02.292Z,36.17
2023-02-16T00:39:31.142Z,36.40
2023-02-16T00:42:04.105Z,36.70
2023-02-16T00:44:35.844Z,37.40
2023-02-16T00:47:12.836Z,35.73
2023-02-16T00:49:40.728Z,37.60
2023-02-16T00:52:28.578Z,35.63
2023-02-16T00:54:56.756Z,36.33
2023-02-16T00:57:25.914Z,39.70
2023-02-16T01:00:00.692Z,40.00
2023-02-16T01:02:29.119Z,39.50
2023-02-16T01:04:57.143Z,39.80
2023-02-16T01:07:44.310Z,36.10
2023-02-16T01:10:30.690Z,38.10
2023-02-16T01:12:59.352Z,38.80
2023-02-16T01:15:28.251Z,39.53
2023-02-16T01:17:56.341Z,39.80
2023-02-16T01:20:27.471Z,36.07
2023-02-16T01:22:56.774Z,35.03
2023-02-16T01:25:25.039Z,38.33
2023-02-16T01:27:54.287Z,34.20
2023-02-16T01:30:23.919Z,33.57
2023-02-16T01:32:52.584Z,34.90
2023-02-16T01:35:21.487Z,35.67
2023-02-16T01:37:49.432Z,35.47
2023-02-16T01:40:37.964Z,35.00
2023-02-16T01:43:15.621Z,36.73
2023-02-16T01:45:46.272Z,33.50
2023-02-16T01:48:22.945Z,34.73
2023-02-16T01:51:00.077Z,33.70
2023-02-16T01:53:34.412Z,35.63
2023-02-16T01:56:07.578Z,37.33
2023-02-16T01:58:41.759Z,34.43
2023-02-16T02:01:37.400Z,38.17
2023-02-16T02:04:30.800Z,35.23
2023-02-16T02:06:58.764Z,36.07
2023-02-16T02:09:36.427Z,36.87
2023-02-16T02:12:14.661Z,34.53
2023-02-16T02:14:43.933Z,34.70
2023-02-16T02:17:15.577Z,35.37
2023-02-16T02:19:52.185Z,31.80
2023-02-16T02:23:16.473Z,32.47
2023-02-16T02:26:25.373Z,34.47
2023-02-16T02:29:03.670Z,34.40
2023-02-16T02:31:48.066Z,33.97
2023-02-16T02:34:26.005Z,33.37
2023-02-16T02:37:06.359Z,39.10
2023-02-16T02:39:42.174Z,34.17
2023-02-16T02:42:19.672Z,35.23
2023-02-16T02:44:57.978Z,35.73
2023-02-16T02:47:38.533Z,36.80
2023-02-16T02:50:35.182Z,36.70
2023-02-16T02:53:07.407Z,35.60
2023-02-16T02:55:57.651Z,37.73
2023-02-16T02:58:45.147Z,34.27
2023-02-16T03:01:16.491Z,33.83
2023-02-16T03:03:49.207Z,38.03
2023-02-16T03:06:23.238Z,32.67
2023-02-16T03:08:56.033Z,36.60
2023-02-16T03:11:45.714Z,33.13
2023-02-16T03:14:19.003Z,35.07
2023-02-16T03:17:06.010Z,33.17
2023-02-16T03:19:51.320Z,34.07
2023-02-16T03:22:36.778Z,30.73
2023-02-16T03:25:22.059Z,33.20
2023-02-16T03:28:08.145Z,33.70
2023-02-16T03:30:36.517Z,31.57
2023-02-16T03:33:05.815Z,31.40
2023-02-16T03:35:33.816Z,31.20
2023-02-16T03:38:01.775Z,30.10
2023-02-16T03:40:32.811Z,30.50
2023-02-16T03:43:03.893Z,33.33
2023-02-16T03:45:35.019Z,33.93
2023-02-16T03:48:03.384Z,30.97
2023-02-16T03:50:33.061Z,31.20
2023-02-16T03:53:07.770Z,33.20
2023-02-16T03:55:37.058Z,33.57
2023-02-16T03:58:05.425Z,31.47
2023-02-16T04:00:34.161Z,30.77
2023-02-16T04:03:02.130Z,30.33
2023-02-16T04:05:30.178Z,33.10
2023-02-16T04:07:59.431Z,30.90
2023-02-16T04:10:27.429Z,31.33
2023-02-16T04:12:54.336Z,30.43
2023-02-16T04:15:24.772Z,31.07
2023-02-16T04:17:53.982Z,32.97
2023-02-16T04:20:24.466Z,32.70
2023-02-16T04:22:52.865Z,31.10
2023-02-16T04:25:22.903Z,32.53
2023-02-16T04:27:51.529Z,31.33
2023-02-16T04:30:21.605Z,29.47
2023-02-16T04:32:49.545Z,31.97
2023-02-16T04:35:18.259Z,30.97
2023-02-16T04:37:46.372Z,32.57
2023-02-16T04:40:15.712Z,33.40
2023-02-16T04:42:46.098Z,32.90
2023-02-16T04:45:14.364Z,32.33
2023-02-16T04:47:42.430Z,33.80
2023-02-16T04:50:11.205Z,31.43
2023-02-16T04:52:39.397Z,31.27
2023-02-16T04:55:10.641Z,31.00
2023-02-16T04:57:38.625Z,29.77
2023-02-16T05:00:11.670Z,32.33
2023-02-16T05:02:39.616Z,29.10
2023-02-16T05:05:08.549Z,31.67
2023-02-16T05:07:36.978Z,31.50
2023-02-16T05:10:06.154Z,31.63
2023-02-16T05:12:51.868Z,33.10
2023-02-16T05:15:21.485Z,32.83
2023-02-16T05:17:49.333Z,33.43
2023-02-16T05:20:17.371Z,35.80
2023-02-16T05:22:46.318Z,31.87
2023-02-16T05:25:14.320Z,30.13
2023-02-16T05:27:42.207Z,30.30
2023-02-16T05:30:11.220Z,33.57
2023-02-16T05:32:40.448Z,33.40
2023-02-16T05:35:08.620Z,31.13
2023-02-16T05:37:36.482Z,30.20
2023-02-16T05:40:04.492Z,30.70
2023-02-16T05:42:32.314Z,30.37
2023-02-16T05:45:00.213Z,26.73
2023-02-16T05:47:28.028Z,30.93
2023-02-16T05:49:57.289Z,30.80
2023-02-16T05:52:25.235Z,29.53
2023-02-16T05:54:53.110Z,30.70
2023-02-16T05:57:20.914Z,29.90
2023-02-16T05:59:48.846Z,30.07
2023-02-16T06:02:16.740Z,29.73
2023-02-16T06:04:44.947Z,30.27
2023-02-16T06:07:14.998Z,29.77
2023-02-16T06:09:42.979Z,29.57
2023-02-16T06:12:10.832Z,29.00
2023-02-16T06:14:38.725Z,30.20
2023-02-16T06:17:06.603Z,29.77
2023-02-16T06:19:34.615Z,28.47
2023-02-16T06:22:02.601Z,28.70
2023-02-16T06:24:31.860Z,30.43
2023-02-16T06:26:59.689Z,28.60
2023-02-16T06:29:27.572Z,28.87
2023-02-16T06:31:55.557Z,29.20
2023-02-16T06:34:23.634Z,31.47
2023-02-16T06:36:51.547Z,30.13
2023-02-16T06:39:19.640Z,28.50
2023-02-16T06:41:48.946Z,28.90
2023-02-16T06:44:18.259Z,30.40
2023-02-16T06:46:48.105Z,29.67
2023-02-16T06:49:18.954Z,31.40
2023-02-16T06:51:47.959Z,30.80
2023-02-16T06:54:16.438Z,30.77
2023-02-16T06:56:44.391Z,32.00
2023-02-16T06:59:13.826Z,30.20
2023-02-16T07:01:44.072Z,31.40
2023-02-16T07:04:12.828Z,30.53
2023-02-16T07:06:41.210Z,29.97
2023-02-16T07:09:10.646Z,28.87
2023-02-16T07:11:39.402Z,29.50
2023-02-16T07:14:07.361Z,31.23
2023-02-16T07:16:36.711Z,29.77
2023-02-16T07:19:05.641Z,29.93
2023-02-16T07:21:33.523Z,31.73
2023-02-16T07:24:01.418Z,32.57
2023-02-16T07:26:29.382Z,34.40
2023-02-16T07:28:57.226Z,32.00
2023-02-16T07:31:26.604Z,30.37
2023-02-16T07:33:55.882Z,33.30
2023-02-16T07:36:23.835Z,33.97
2023-02-16T07:38:51.721Z,32.60
2023-02-16T07:41:22.388Z,33.10
2023-02-16T07:43:50.306Z,33.80
2023-02-16T07:46:18.451Z,33.87
2023-02-16T07:48:48.439Z,33.70
2023-02-16T07:51:23.313Z,30.53
2023-02-16T07:53:51.363Z,30.73
2023-02-16T07:56:21.026Z,31.17
2023-02-16T07:58:49.062Z,32.40
2023-02-16T08:01:17.504Z,30.33
2023-02-16T08:03:46.691Z,32.83
2023-02-16T08:06:15.392Z,30.63
2023-02-16T08:08:45.550Z,31.07
2023-02-16T08:11:15.224Z,32.30
2023-02-16T08:13:43.228Z,31.60
2023-02-16T08:16:12.103Z,33.80
2023-02-16T08:18:41.711Z,30.67
2023-02-16T08:21:14.378Z,30.80
2023-02-16T08:23:47.524Z,31.67
2023-02-16T08:26:19.268Z,32.53
2023-02-16T08:28:50.028Z,32.23
2023-02-16T08:31:19.984Z,31.67
2023-02-16T08:33:49.096Z,31.63
2023-02-16T08:36:21.083Z,30.90
2023-02-16T08:38:51.149Z,33.80
2023-02-16T08:41:20.393Z,34.10
2023-02-16T08:43:48.632Z,32.97
2023-02-16T08:46:17.254Z,33.63
2023-02-16T08:48:46.039Z,32.07
2023-02-16T08:51:15.988Z,31.20
2023-02-16T08:53:44.140Z,31.93
2023-02-16T08:56:14.592Z,31.23
2023-02-16T08:58:44.811Z,33.97
2023-02-16T09:01:13.845Z,32.10
2023-02-16T09:03:43.185Z,32.83
2023-02-16T09:06:13.260Z,35.13
2023-02-16T09:08:42.073Z,33.33
2023-02-16T09:11:13.047Z,33.53
2023-02-16T09:13:43.250Z,34.03
2023-02-16T09:16:13.101Z,35.70
2023-02-16T09:18:41.242Z,31.73
2023-02-16T09:21:11.376Z,32.07
2023-02-16T09:23:40.583Z,32.30
2023-02-16T09:26:09.846Z,40.80
2023-02-16T09:28:38.598Z,36.63
2023-02-16T09:31:12.372Z,33.90
2023-02-16T09:33:41.475Z,30.93
2023-02-16T09:36:12.983Z,35.60
2023-02-16T09:38:41.489Z,33.00
2023-02-16T09:41:17.326Z,33.57
2023-02-16T09:43:52.655Z,29.30
2023-02-16T09:46:25.099Z,29.40
2023-02-16T09:48:53.927Z,27.83
2023-02-16T09:51:33.928Z,31.83
2023-02-16T09:54:14.199Z,26.93
2023-02-16T09:56:48.112Z,31.30
2023-02-16T09:59:36.983Z,31.20
2023-02-16T10:02:34.430Z,29.70
2023-02-16T10:05:20.091Z,29.33
2023-02-16T10:08:07.754Z,28.07
2023-02-16T10:10:44.673Z,29.23
2023-02-16T10:13:20.297Z,26.00
2023-02-16T10:15:52.452Z,30.83
2023-02-16T10:18:29.247Z,30.73
2023-02-16T10:21:01.660Z,26.43
2023-02-16T10:23:45.327Z,28.47
2023-02-16T10:26:24.561Z,29.30
2023-02-16T10:28:55.967Z,29.40
2023-02-16T10:31:35.159Z,28.93
2023-02-16T10:34:23.395Z,28.60
2023-02-16T10:37:18.759Z,27.90
2023-02-16T10:39:52.965Z,25.50
2023-02-16T10:42:28.306Z,28.30
2023-02-16T10:45:03.903Z,29.47
2023-02-16T10:47:35.743Z,30.20
2023-02-16T10:50:07.052Z,28.80
2023-02-16T10:52:40.518Z,28.63
2023-02-16T10:55:08.974Z,28.20
2023-02-16T10:57:37.253Z,28.80
2023-02-16T11:00:10.340Z,28.30
2023-02-16T11:02:40.920Z,20.07
2023-02-16T11:05:33.274Z,26.80
2023-02-16T11:08:02.712Z,26.50
2023-02-16T11:10:40.431Z,27.70
2023-02-16T11:13:18.360Z,26.77
2023-02-16T11:15:54.481Z,26.70
2023-02-16T11:18:36.432Z,27.30
2023-02-16T11:21:07.376Z,26.83
2023-02-16T11:23:36.940Z,27.13
2023-02-16T11:26:06.901Z,25.60
2023-02-16T11:28:36.996Z,26.73
2023-02-16T11:31:14.908Z,29.07
2023-02-16T11:33:43.998Z,27.03
2023-02-16T11:36:33.483Z,29.33
2023-02-16T11:39:06.914Z,27.43
2023-02-16T11:41:35.779Z,26.03
2023-02-16T11:44:04.602Z,26.50
2023-02-16T11:46:40.822Z,28.50
2023-02-16T11:49:23.749Z,29.60
2023-02-16T11:51:52.984Z,29.00
2023-02-16T11:54:21.804Z,30.20
2023-02-16T11:57:04.302Z,30.27
2023-02-16T11:59:37.255Z,30.37
2023-02-16T12:02:37.647Z,30.20
2023-02-16T12:05:22.012Z,30.10
2023-02-16T12:08:11.021Z,28.37
2023-02-16T12:10:49.857Z,30.03
2023-02-16T12:13:25.670Z,31.20
2023-02-16T12:16:03.264Z,29.27
2023-02-16T12:18:41.173Z,29.33
2023-02-16T12:21:23.828Z,29.47
2023-02-16T12:23:58.319Z,30.63
2023-02-16T12:26:39.271Z,29.73
2023-02-16T12:29:25.412Z,32.40
2023-02-16T12:32:07.310Z,30.90
2023-02-16T12:34:50.984Z,31.47
2023-02-16T12:37:27.675Z,30.60
2023-02-16T12:40:04.878Z,29.00
2023-02-16T12:43:00.568Z,31.23
2023-02-16T12:45:33.892Z,29.60
2023-02-16T12:48:10.108Z,30.77
2023-02-16T12:50:44.142Z,30.67
2023-02-16T12:53:22.011Z,27.70
2023-02-16T12:55:56.487Z,27.70
2023-02-16T12:58:29.880Z,28.40
2023-02-16T13:01:01.611Z,28.33
2023-02-16T13:03:35.843Z,29.17
2023-02-16T13:06:19.306Z,29.67
2023-02-16T13:08:53.134Z,31.20
2023-02-16T13:11:28.388Z,30.50
2023-02-16T13:14:03.253Z,31.40
2023-02-16T13:16:40.627Z,32.70
2023-02-16T13:19:12.840Z,29.03
2023-02-16T13:22:01.565Z,28.83
2023-02-16T13:24:44.303Z,27.90
2023-02-16T13:27:30.030Z,30.10
2023-02-16T13:30:10.387Z,28.93
2023-02-16T13:32:56.238Z,30.80
2023-02-16T13:36:02.199Z,29.87
2023-02-16T13:38:50.167Z,29.70
2023-02-16T13:41:46.590Z,31.77
2023-02-16T13:44:18.232Z,30.50
2023-02-16T13:46:50.312Z,26.10
2023-02-16T13:49:36.171Z,30.50
2023-02-16T13:52:04.762Z,30.50
2023-02-16T13:54:35.595Z,31.80
2023-02-16T13:57:04.316Z,32.67
2023-02-16T14:00:05.402Z,31.43
2023-02-16T14:02:56.697Z,30.40
2023-02-16T14:05:29.093Z,31.43
2023-02-16T14:08:21.823Z,29.90
2023-02-16T14:11:11.489Z,31.17
2023-02-16T14:13:48.823Z,35.27
2023-02-16T14:16:33.662Z,31.43
2023-02-16T14:19:05.076Z,33.20
2023-02-16T14:21:38.312Z,33.57
2023-02-16T14:24:11.511Z,32.03
2023-02-16T14:26:59.222Z,31.23
2023-02-16T14:29:30.993Z,31.90
2023-02-16T14:32:06.280Z,32.77
2023-02-16T14:34:41.329Z,32.57
2023-02-16T14:37:29.829Z,31.67
2023-02-16T14:40:15.838Z,32.20
2023-02-16T14:42:51.238Z,34.60
2023-02-16T14:45:39.525Z,33.53
2023-02-16T14:48:23.693Z,31.53
2023-02-16T14:51:14.321Z,33.33
2023-02-16T14:54:30.666Z,32.43
2023-02-16T14:57:02.911Z,33.53
2023-02-16T14:59:34.693Z,34.57
2023-02-16T15:02:28.202Z,34.57
2023-02-16T15:04:56.284Z,34.20
2023-02-16T15:07:26.465Z,33.90
2023-02-16T15:09:57.836Z,36.47
2023-02-16T15:12:40.522Z,36.27
2023-02-16T15:15:10.734Z,35.10
2023-02-16T15:17:41.788Z,34.60
2023-02-16T15:20:19.777Z,38.00
2023-02-16T15:22:51.226Z,37.87
2023-02-16T15:25:25.752Z,39.20
2023-02-16T15:27:58.951Z,43.00
2023-02-16T15:30:29.748Z,40.30
2023-02-16T15:33:01.504Z,41.70
2023-02-16T15:35:35.376Z,42.10
2023-02-16T15:38:07.978Z,39.20
2023-02-16T15:40:37.296Z,37.20
2023-02-16T15:43:15.176Z,38.00
2023-02-16T15:45:43.059Z,36.57
2023-02-16T15:48:18.377Z,39.43
2023-02-16T15:50:46.844Z,34.33
2023-02-16T15:53:16.473Z,36.87
2023-02-16T15:55:46.748Z,37.97
2023-02-16T15:58:16.529Z,36.97
2023-02-16T16:00:47.676Z,36.90
2023-02-16T16:03:18.520Z,37.83
2023-02-16T16:05:59.514Z,37.47
2023-02-16T16:08:29.235Z,39.67
2023-02-16T16:10:57.899Z,37.90
2023-02-16T16:13:28.537Z,39.67
2023-02-16T16:16:01.741Z,39.63
2023-02-16T16:18:46.307Z,42.20
2023-02-16T16:21:21.289Z,47.20
2023-02-16T16:23:57.900Z,45.47
2023-02-16T16:26:28.611Z,41.70
2023-02-16T16:28:56.904Z,39.40
2023-02-16T16:31:53.918Z,40.37
2023-02-16T16:34:35.311Z,41.20
2023-02-16T16:37:04.544Z,39.73
2023-02-16T16:39:35.120Z,32.07
2023-02-16T16:42:21.260Z,41.00
2023-02-16T16:45:02.274Z,42.83
2023-02-16T16:47:34.175Z,41.90
2023-02-16T16:50:07.586Z,39.87
2023-02-16T16:52:42.055Z,42.23
2023-02-16T16:55:26.168Z,39.47
2023-02-16T16:57:55.666Z,41.00
2023-02-16T17:00:26.335Z,41.63
2023-02-16T17:02:54.416Z,42.90
2023-02-16T17:05:23.620Z,39.67
2023-02-16T17:07:51.963Z,39.73
2023-02-16T17:10:21.851Z,41.33
2023-02-16T17:12:53.469Z,40.47
2023-02-16T17:15:32.530Z,38.53
2023-02-16T17:18:01.390Z,42.10
2023-02-16T17:20:30.851Z,40.13
2023-02-16T17:23:04.487Z,40.23
2023-02-16T17:25:34.785Z,38.87
2023-02-16T17:28:02.926Z,39.20
2023-02-16T17:30:32.360Z,43.00
2023-02-16T17:33:00.492Z,42.53
2023-02-16T17:35:30.604Z,42.57
2023-02-16T17:37:58.470Z,44.33
2023-02-16T17:40:27.104Z,42.37
2023-02-16T17:42:54.962Z,41.30
2023-02-16T17:45:23.584Z,44.93
2023-02-16T17:47:53.156Z,42.60
2023-02-16T17:50:22.003Z,42.03
2023-02-16T17:52:57.014Z,45.47
2023-02-16T17:55:25.531Z,47.00
2023-02-16T17:57:53.925Z,45.37
2023-02-16T18:00:23.495Z,45.00
2023-02-16T18:02:51.548Z,46.27
2023-02-16T18:05:19.523Z,44.47
2023-02-16T18:07:47.488Z,44.80
2023-02-16T18:10:30.859Z,46.30
2023-02-16T18:12:58.778Z,46.20
2023-02-16T18:15:26.618Z,44.40
2023-02-16T18:17:55.462Z,45.33
2023-02-16T18:20:23.944Z,44.37
2023-02-16T18:22:51.917Z,46.53
2023-02-16T18:25:21.226Z,46.67
2023-02-16T18:27:49.443Z,47.50
2023-02-16T18:30:18.306Z,48.40
2023-02-16T18:32:47.012Z,37.50
2023-02-16T18:35:17.104Z,47.07
2023-02-16T18:37:46.094Z,49.20
2023-02-16T18:40:16.787Z,47.30
2023-02-16T18:42:46.256Z,46.77
2023-02-16T18:45:14.367Z,47.83
2023-02-16T18:47:42.617Z,45.33
2023-02-16T18:50:11.643Z,47.40
2023-02-16T18:52:42.359Z,45.47
2023-02-16T18:55:11.250Z,48.50
2023-02-16T18:57:39.549Z,43.97
2023-02-16T19:00:11.271Z,48.53
2023-02-16T19:02:40.806Z,44.83
2023-02-16T19:05:09.326Z,43.57
2023-02-16T19:07:37.575Z,45.80
2023-02-16T19:10:08.273Z,45.03
2023-02-16T19:12:36.208Z,45.73
2023-02-16T19:15:04.672Z,46.00
2023-02-16T19:17:34.000Z,45.10
2023-02-16T19:20:02.039Z,46.60
2023-02-16T19:22:29.961Z,45.33
2023-02-16T19:24:57.856Z,51.83
2023-02-16T19:27:25.705Z,50.43
2023-02-16T19:29:53.646Z,50.53
2023-02-16T19:32:21.807Z,52.97
2023-02-16T19:34:51.050Z,51.17
2023-02-16T19:37:19.043Z,53.67
2023-02-16T19:39:47.219Z,53.80
2023-02-16T19:42:15.203Z,51.00
2023-02-16T19:44:43.055Z,52.33
2023-02-16T19:47:10.967Z,50.87
2023-02-16T19:49:38.886Z,50.00
2023-02-16T19:52:08.203Z,51.03
2023-02-16T19:54:37.132Z,52.43
2023-02-16T19:57:05.726Z,49.27
2023-02-16T19:59:35.395Z,50.17
2023-02-16T20:02:03.420Z,50.00
2023-02-16T20:04:31.457Z,48.57
2023-02-16T20:06:59.439Z,48.87
2023-02-16T20:09:29.152Z,50.20
2023-02-16T20:11:57.083Z,43.80
2023-02-16T20:14:24.994Z,48.13
2023-02-16T20:16:52.904Z,46.97
2023-02-16T20:19:20.961Z,43.60
2023-02-16T20:21:48.844Z,42.17
2023-02-16T20:24:16.883Z,39.80
2023-02-16T20:26:49.060Z,39.47
2023-02-16T20:29:17.112Z,39.70
2023-02-16T20:31:49.869Z,38.03
2023-02-16T20:34:17.996Z,35.60
2023-02-16T20:36:46.001Z,33.33
2023-02-16T20:39:14.630Z,31.80
2023-02-16T20:41:42.908Z,32.20
2023-02-16T20:44:12.353Z,32.17
2023-02-16T20:46:41.138Z,31.97
2023-02-16T20:49:09.540Z,32.90
2023-02-16T20:51:40.270Z,31.07
2023-02-16T20:54:08.406Z,32.17
2023-02-16T20:56:36.312Z,32.20
2023-02-16T20:59:05.157Z,31.53
2023-02-16T21:01:38.112Z,29.93
2023-02-16T21:04:07.757Z,30.20
2023-02-16T21:06:36.825Z,28.57
2023-02-16T21:09:05.397Z,29.80
2023-02-16T21:11:33.482Z,28.73
2023-02-16T21:14:02.357Z,33.03
2023-02-16T21:16:30.624Z,28.60
2023-02-16T21:19:00.129Z,31.03
2023-02-16T21:21:28.140Z,32.33
2023-02-16T21:23:56.434Z,31.63
2023-02-16T21:26:26.032Z,28.40
2023-02-16T21:28:54.600Z,31.43
2023-02-16T21:31:25.988Z,32.90
2023-02-16T21:33:54.536Z,32.23
2023-02-16T21:36:26.488Z,31.80
2023-02-16T21:38:54.802Z,32.97
2023-02-16T21:41:27.722Z,33.33
2023-02-16T21:43:58.439Z,38.50
2023-02-16T21:46:27.183Z,39.97
2023-02-16T21:48:55.154Z,41.33
2023-02-16T21:51:26.859Z,34.40
2023-02-16T21:53:55.647Z,35.97
2023-02-16T21:56:27.616Z,35.73
2023-02-16T21:58:55.495Z,32.97
2023-02-16T22:01:24.854Z,34.27
2023-02-16T22:03:58.497Z,36.70
2023-02-16T22:06:29.709Z,35.90
2023-02-16T22:08:57.575Z,42.60
2023-02-16T22:11:26.060Z,38.93
2023-02-16T22:13:55.851Z,38.23
2023-02-16T22:16:24.753Z,39.70
2023-02-16T22:18:58.197Z,40.17
2023-02-16T22:21:26.494Z,38.30
2023-02-16T22:23:56.225Z,41.03
2023-02-16T22:26:26.483Z,38.10
2023-02-16T22:28:54.760Z,40.53
2023-02-16T22:31:24.042Z,40.50
2023-02-16T22:33:56.676Z,38.57
2023-02-16T22:36:24.854Z,37.87
2023-02-16T22:38:54.167Z,38.73
2023-02-16T22:41:24.010Z,36.30
2023-02-16T22:43:53.327Z,38.33
2023-02-16T22:46:21.443Z,39.03
2023-02-16T22:48:49.432Z,37.37
2023-02-16T22:51:18.729Z,35.00
2023-02-16T22:53:46.948Z,34.30
2023-02-16T22:56:17.001Z,34.80
2023-02-16T22:58:46.283Z,36.80
2023-02-16T23:01:16.311Z,36.97
2023-02-16T23:03:46.775Z,40.73
2023-02-16T23:06:16.294Z,37.70
2023-02-16T23:08:45.365Z,36.20
2023-02-16T23:11:14.791Z,36.63
2023-02-16T23:13:42.746Z,37.00
2023-02-16T23:16:18.667Z,35.40
2023-02-16T23:18:46.903Z,36.23
2023-02-16T23:21:17.703Z,38.90
2023-02-16T23:23:46.374Z,39.17
2023-02-16T23:26:15.069Z,41.77
2023-02-16T23:28:44.206Z,40.37
2023-02-16T23:31:13.702Z,37.03
2023-02-16T23:33:41.688Z,38.40
2023-02-16T23:36:10.286Z,38.50
2023-02-16T23:38:38.498Z,35.47
2023-02-16T23:41:09.187Z,40.43
2023-02-16T23:43:37.314Z,37.37
2023-02-16T23:46:05.878Z,37.73
2023-02-16T23:48:36.713Z,36.43
2023-02-16T23:51:04.879Z,37.60
2023-02-16T23:53:32.801Z,40.50
2023-02-16T23:56:01.225Z,38.70
2023-02-16T23:58:29.905Z,41.23
